Terminal Aerodrome Forecast
Issued by NWS

Home | Current Version | Previous Version | Text Only | Print | Product List | Glossary On
Versions: 1 2 3 4 5 6 7 8 9 10 11 12 13 14 15 16 17 18 19 20 21 22
678
FTUS43 KDLH 201720
TAFHIB
TAF
KHIB 201720Z 2018/2118 28007KT P6SM SCT025 BKN250
     FM210000 VRB03KT P6SM FEW250
     FM210800 00000KT 3SM BR SKC
     FM211300 15005KT P6SM SCT250=

USA.gov is the U.S. government's official web portal to all federal, state and local government web resources and services.